Why insider trading matters?

Numerous studies have examined whether there is evidence that U.S. insiders systematically trade on private information despite the legal deterrence. The consensus appears to be that insider purchases (but not sales) tend to be followed by positive abnormal stock price performance, particularly for small growth stocks.

- Prof. B. Espen Eckbo, Dartmouth College
Ceridian HCM Holding Inc. (CDAY)
Sector: Technology; Industry: Software—Application

Ceridian HCM Holding Inc. operates as a human capital management (HCM) software company in the United States, Canada, and internationally. The company offers Dayforce, a cloud HCM platform that provides human resources (HR), payroll, benefits, workforce management, and talent management functionality; and Powerpay, a cloud platform, which offers scalable and straightforward payroll and HR solutions.


Trade Date Insider Title Buy/Sell #Shares Price Value Option
2020-10-07 Turner Leagh Erin President and COO Sell 5,000 $86.27 $431,350 Yes
2020-09-08 Turner Leagh Erin President and COO Sell 5,000 $71.34 $356,721 Yes
2020-09-02 Kitching Scott A EVP, GC & Assistant Secretary Sell 23,777 $84.00 $1,997,268 Yes
2020-08-28 THOMAS H. LEE ADVISORS, LLC Director Sell 7,217,347 $72.18 $520,948,106 No
2020-08-28 THOMAS H. LEE ADVISORS, LLC Director Sell 7,217,347 $72.18 $520,948,106 No
2020-08-28 Ossip David D Chairman and CEO Sell 500,000 $72.18 $36,090,000 Yes
2020-06-08 THOMAS H. LEE ADVISORS, LLC Director Sell 5,217,344 $83.87 $437,578,641 No
2020-06-08 THOMAS H. LEE ADVISORS, LLC Director Sell 5,217,344 $83.87 $437,578,641 No
2020-08-19 Kitching Scott A EVP, GC & Assistant Secretary Sell 49,477 $73.93 $3,657,826 Yes
2020-08-07 Turner Leagh Erin President and COO Sell 5,000 $73.31 $366,572 Yes
2020-06-09 Ossip David D Chairman and CEO Sell 500,000 $81.00 $40,500,000 Yes
2020-05-20 Gitajn Arthur EVP, CFO Sell 86,500 $65.51 $5,666,956 Yes
2020-05-20 Cannae Holdings, Inc. 10%-Owner Sell 1,900,000 $64.40 $122,360,000 No
2020-05-18 Jacobs Jeffrey Scott Head of Acct & Fin Reporting Sell 3,000 $67.00 $201,000 Yes
2020-05-08 Cannae Holdings, Inc. 10%-Owner, Director Sell 1,800,000 $64.41 $115,938,000 No
2020-05-05 Armstrong Christopher R EVP, Chief Customer Officer Sell 11,071 $60.00 $664,260 Yes
2020-04-29 Armstrong Christopher R EVP, Chief Customer Officer Sell 7,890 $60.00 $473,400 Yes
2020-02-19 THOMAS H. LEE ADVISORS, LLC 10%-Owner, Director Sell 6,300,000 $74.04 $466,443,000 No
2020-02-19 THOMAS H. LEE ADVISORS, LLC 10%-Owner, Director Sell 6,300,000 $74.04 $466,443,000 No
2020-02-20 Gitajn Arthur EVP, CFO Sell 86,500 $76.07 $6,580,151 Yes
2020-02-19 Cannae Holdings, Inc. 10%-Owner, Director Sell 3,900,000 $72.75 $283,725,000 No
2020-01-08 Sterling Lisa M. EVP and CPCO Sell 15,058 $70.21 $1,057,222 Yes
2019-11-15 Cannae Holdings, Inc. 10%-Owner, Director Sell 5,000,000 $53.08 $265,400,000 No
2019-11-15 THOMAS H. LEE ADVISORS, LLC 10%-Owner, Director Sell 5,000,000 $53.08 $265,400,000 No
2019-11-15 THOMAS H. LEE ADVISORS, LLC 10%-Owner, Director Sell 5,000,000 $53.08 $265,400,000 No
2019-09-18 Sterling Lisa M. EVP and CPCO Sell 6,250 $52.01 $325,062 Yes
2019-09-06 Ossip David D Chairman and CEO Sell 500,000 $56.00 $28,000,000 Yes
2019-09-06 Cannae Holdings, Inc. 10%-Owner, Director Sell 2,000,000 $56.00 $112,000,000 No
2019-09-06 THOMAS H. LEE ADVISORS, LLC 10%-Owner, Director Sell 6,500,000 $56.00 $364,000,000 No
2019-09-06 THOMAS H. LEE ADVISORS, LLC 10%-Owner, Director Sell 6,500,000 $56.00 $364,000,000 No

Insider Smart

Axsome Therapeutics, Inc (AXSM) - AXSM shows the power of an #allgreen stock, no insider selling, great management great company, if you follow the insiders last year and pick up around $25, the 52 week high is $100+.

Insider Smart

SERVICE CORP INTERNATIONAL (SCI) - WALTRIP W BLAIR, Director of $SCI made a buy at 34.65, was he convinced the bottom of the box is a strong support? Well, seems he is not wrong.